Corsa — V2PZ2 — position and weather

sailwx.info

Track history (hours):
 
Tides and Currents Weather Stations Pressure Air Temp Water Temp Dewpoint Dewpoint Depression Visibility Wind Speed Wind Dir Waves Ship Positions

Corsa

Last reported at 2014-Aug-31 05:28 UTC. Time now 2014-Sep-01 18:41 UTC.
Position N 46°29' E 030°45'.

Length 101 m; draft 6.7 m.

Type: Cargo ship. MMSI: 304624000.

Date/timePositionNaut miles runAvg speedWind from/ knotsBaromVisibWave heightAir tempDewpointWater temp
2014-Aug-31 05:28N 46°29' E 030°45'0 0.0
2014-Aug-31 04:28N 46°29' E 030°45'0 0.0
2014-Aug-31 03:22N 46°29' E 030°45'3 2.5
2014-Aug-31 02:12N 46°29' E 030°50'13212.0
2014-Aug-30 15:15N 44°48' E 032°51'1012.1
2014-Aug-30 14:26N 44°41' E 032°60'5611.4
2014-Aug-30 09:33N 44°18' E 034°11'1313.2
2014-Aug-30 08:33N 44°18' E 034°29'1313.4
2014-Aug-30 07:34N 44°18' E 034°48'1313.4
2014-Aug-30 06:34N 44°19' E 035°07'10212.7
2014-Aug-29 22:33N 44°30' E 037°28'1312.8
2014-Aug-29 21:34N 44°35' E 037°45'8 8.3
2014-Aug-29 20:33N 44°43' E 037°48'1 0.6
2014-Aug-29 19:32N 44°43' E 037°49'0 0.0
2014-Aug-29 18:32N 44°43' E 037°49'0 0.0
2014-Aug-29 17:32N 44°43' E 037°49'0 0.0
2014-Aug-29 16:32N 44°43' E 037°49'0 0.0
2014-Aug-29 15:32N 44°43' E 037°49'0 0.0
2014-Aug-29 14:32N 44°43' E 037°49'0 0.0
2014-Aug-29 13:32N 44°43' E 037°49'0 0.0
2014-Aug-29 12:33N 44°43' E 037°49'0 0.0
2014-Aug-29 11:32N 44°43' E 037°49'0 0.0
2014-Aug-29 10:32N 44°43' E 037°49'0 0.0
2014-Aug-29 09:32N 44°43' E 037°49'0 0.0
2014-Aug-29 08:32N 44°43' E 037°49'0 0.0
2014-Aug-29 07:32N 44°43' E 037°49'0 0.0
2014-Aug-29 06:32N 44°43' E 037°49'0 0.0
2014-Aug-29 05:32N 44°43' E 037°49'0 0.0
2014-Aug-29 04:32N 44°43' E 037°49'0 0.0
2014-Aug-29 03:32N 44°43' E 037°49'0 0.0
2014-Aug-29 02:32N 44°43' E 037°49'0 0.0
2014-Aug-29 01:32N 44°43' E 037°49'0 0.0
2014-Aug-29 00:32N 44°43' E 037°49'0 0.0
2014-Aug-28 23:32N 44°43' E 037°49'0 0.0
2014-Aug-28 22:32N 44°43' E 037°49'0 0.0
2014-Aug-28 21:32N 44°43' E 037°49'0 0.0
2014-Aug-28 20:32N 44°43' E 037°49'0 0.0
2014-Aug-28 19:33N 44°43' E 037°49'3 3.2
2014-Aug-28 18:33N 44°40' E 037°50'9 9.1
2014-Aug-28 17:33N 44°31' E 037°47'1212.2
2014-Aug-28 16:33N 44°25' E 037°32'1212.2
2014-Aug-28 15:33N 44°19' E 037°18'11312.6
2014-Aug-28 06:31N 43°28' E 034°57'1312.2
2014-Aug-28 05:30N 43°22' E 034°42'25812.3
2014-Aug-27 08:33N 41°23' E 029°33'1312.7
2014-Aug-27 07:33N 41°17' E 029°17'2110.3
2014-Aug-27 05:33N 41°01' E 028°60'9 9.4
2014-Aug-27 04:33N 40°52' E 029°01'6 6.2
2014-Aug-27 03:33N 40°47' E 028°56'0 0.1
2014-Aug-27 02:33N 40°47' E 028°57'0 0.1
2014-Aug-27 01:33N 40°47' E 028°57'0 0.2
2014-Aug-27 00:31N 40°46' E 028°57'0 0.1
2014-Aug-26 23:33N 40°46' E 028°57'0 0.3
2014-Aug-26 22:33N 40°47' E 028°58'1 0.5
2014-Aug-26 21:32N 40°47' E 028°58'1 0.6
2014-Aug-26 20:33N 40°47' E 028°59'1 0.6
2014-Aug-26 19:33N 40°47' E 028°60'7 6.5
2014-Aug-26 18:33N 40°46' E 029°08'1111.4
2014-Aug-26 17:33N 40°45' E 029°23'3 0.3
2014-Aug-26 07:33N 40°45' E 029°26'6 5.7
2014-Aug-26 06:33N 40°44' E 029°19'8 8.0
2014-Aug-26 05:33N 40°44' E 029°08'10 9.8
2014-Aug-26 04:33N 40°40' E 028°56'1110.6
2014-Aug-26 03:32N 40°35' E 028°44'14 9.5
2014-Aug-26 02:05N 40°26' E 028°58'3 1.1
2014-Aug-25 23:15N 40°26' E 029°02'27 9.9
2014-Aug-25 20:33N 40°47' E 028°41'35 1.7
2014-Aug-25 00:11N 40°45' E 027°55'1111.5
2014-Aug-24 23:12N 40°43' E 027°40'811.8
2014-Aug-24 22:33N 40°41' E 027°31'5911.6
2014-Aug-24 17:30N 40°12' E 026°23'1310.5
2014-Aug-24 16:17N 40°02' E 026°14'7 8.9
2014-Aug-24 15:33N 39°60' E 026°05'1110.7
2014-Aug-24 14:33N 39°53' E 025°54'1312.1
2014-Aug-24 13:26N 39°40' E 025°49'1112.4
2014-Aug-24 12:32N 39°30' E 025°44'1211.8
2014-Aug-24 11:32N 39°18' E 025°45'1110.7
2014-Aug-24 10:33N 39°07' E 025°48'111 3.6
2014-Aug-23 03:33N 37°16' E 026°01'1212.0
2014-Aug-23 02:33N 37°05' E 026°08'1111.4
2014-Aug-23 01:33N 36°55' E 026°14'1110.9
2014-Aug-23 00:33N 36°48' E 026°24'1111.5
2014-Aug-22 23:33N 36°39' E 026°33'2411.9
2014-Aug-22 21:33N 36°22' E 026°54'1111.3
2014-Aug-22 20:33N 36°13' E 027°02'1110.9
2014-Aug-22 19:33N 36°05' E 027°11'20011.1
2014-Aug-22 01:32N 33°02' E 028°50'1311.8
2014-Aug-22 00:26N 32°50' E 028°56'1212.0
2014-Aug-21 23:25N 32°39' E 029°02'1112.2
2014-Aug-21 22:34N 32°29' E 029°07'3511.8
2014-Aug-21 19:33N 31°57' E 029°25'1611.7
2014-Aug-21 18:09N 31°42' E 029°33'1011.7
2014-Aug-21 17:20N 31°33' E 029°37'  
Track history (hours):
 
Tides and Currents Weather Stations Pressure Air Temp Water Temp Dewpoint Dewpoint Depression Visibility Wind Speed Wind Dir Waves Ship Positions

Corsa

Last reported at 2014-Aug-31 05:28 UTC. Time now 2014-Sep-01 18:41 UTC.
Position N 46°29' E 030°45'.

Length 101 m; draft 6.7 m.

Type: Cargo ship. MMSI: 304624000.

Date/timePositionNaut miles runAvg speedWind from/ knotsBaromVisibWave heightAir tempDewpointWater temp
2014-Aug-31 05:28N 46°29' E 030°45'0 0.0
2014-Aug-31 04:28N 46°29' E 030°45'0 0.0
2014-Aug-31 03:22N 46°29' E 030°45'3 2.5
2014-Aug-31 02:12N 46°29' E 030°50'13212.0
2014-Aug-30 15:15N 44°48' E 032°51'1012.1
2014-Aug-30 14:26N 44°41' E 032°60'5611.4
2014-Aug-30 09:33N 44°18' E 034°11'1313.2
2014-Aug-30 08:33N 44°18' E 034°29'1313.4
2014-Aug-30 07:34N 44°18' E 034°48'1313.4
2014-Aug-30 06:34N 44°19' E 035°07'10212.7
2014-Aug-29 22:33N 44°30' E 037°28'1312.8
2014-Aug-29 21:34N 44°35' E 037°45'8 8.3
2014-Aug-29 20:33N 44°43' E 037°48'1 0.6
2014-Aug-29 19:32N 44°43' E 037°49'0 0.0
2014-Aug-29 18:32N 44°43' E 037°49'0 0.0
2014-Aug-29 17:32N 44°43' E 037°49'0 0.0
2014-Aug-29 16:32N 44°43' E 037°49'0 0.0
2014-Aug-29 15:32N 44°43' E 037°49'0 0.0
2014-Aug-29 14:32N 44°43' E 037°49'0 0.0
2014-Aug-29 13:32N 44°43' E 037°49'0 0.0
2014-Aug-29 12:33N 44°43' E 037°49'0 0.0
2014-Aug-29 11:32N 44°43' E 037°49'0 0.0
2014-Aug-29 10:32N 44°43' E 037°49'0 0.0
2014-Aug-29 09:32N 44°43' E 037°49'0 0.0
2014-Aug-29 08:32N 44°43' E 037°49'0 0.0
2014-Aug-29 07:32N 44°43' E 037°49'0 0.0
2014-Aug-29 06:32N 44°43' E 037°49'0 0.0
2014-Aug-29 05:32N 44°43' E 037°49'0 0.0
2014-Aug-29 04:32N 44°43' E 037°49'0 0.0
2014-Aug-29 03:32N 44°43' E 037°49'0 0.0
2014-Aug-29 02:32N 44°43' E 037°49'0 0.0
2014-Aug-29 01:32N 44°43' E 037°49'0 0.0
2014-Aug-29 00:32N 44°43' E 037°49'0 0.0
2014-Aug-28 23:32N 44°43' E 037°49'0 0.0
2014-Aug-28 22:32N 44°43' E 037°49'0 0.0
2014-Aug-28 21:32N 44°43' E 037°49'0 0.0
2014-Aug-28 20:32N 44°43' E 037°49'0 0.0
2014-Aug-28 19:33N 44°43' E 037°49'3 3.2
2014-Aug-28 18:33N 44°40' E 037°50'9 9.1
2014-Aug-28 17:33N 44°31' E 037°47'1212.2
2014-Aug-28 16:33N 44°25' E 037°32'1212.2
2014-Aug-28 15:33N 44°19' E 037°18'11312.6
2014-Aug-28 06:31N 43°28' E 034°57'1312.2
2014-Aug-28 05:30N 43°22' E 034°42'25812.3
2014-Aug-27 08:33N 41°23' E 029°33'1312.7
2014-Aug-27 07:33N 41°17' E 029°17'2110.3
2014-Aug-27 05:33N 41°01' E 028°60'9 9.4
2014-Aug-27 04:33N 40°52' E 029°01'6 6.2
2014-Aug-27 03:33N 40°47' E 028°56'0 0.1
2014-Aug-27 02:33N 40°47' E 028°57'0 0.1
2014-Aug-27 01:33N 40°47' E 028°57'0 0.2
2014-Aug-27 00:31N 40°46' E 028°57'0 0.1
2014-Aug-26 23:33N 40°46' E 028°57'0 0.3
2014-Aug-26 22:33N 40°47' E 028°58'1 0.5
2014-Aug-26 21:32N 40°47' E 028°58'1 0.6
2014-Aug-26 20:33N 40°47' E 028°59'1 0.6
2014-Aug-26 19:33N 40°47' E 028°60'7 6.5
2014-Aug-26 18:33N 40°46' E 029°08'1111.4
2014-Aug-26 17:33N 40°45' E 029°23'3 0.3
2014-Aug-26 07:33N 40°45' E 029°26'6 5.7
2014-Aug-26 06:33N 40°44' E 029°19'8 8.0
2014-Aug-26 05:33N 40°44' E 029°08'10 9.8
2014-Aug-26 04:33N 40°40' E 028°56'1110.6
2014-Aug-26 03:32N 40°35' E 028°44'14 9.5
2014-Aug-26 02:05N 40°26' E 028°58'3 1.1
2014-Aug-25 23:15N 40°26' E 029°02'27 9.9
2014-Aug-25 20:33N 40°47' E 028°41'35 1.7
2014-Aug-25 00:11N 40°45' E 027°55'1111.5
2014-Aug-24 23:12N 40°43' E 027°40'811.8
2014-Aug-24 22:33N 40°41' E 027°31'5911.6
2014-Aug-24 17:30N 40°12' E 026°23'1310.5
2014-Aug-24 16:17N 40°02' E 026°14'7 8.9
2014-Aug-24 15:33N 39°60' E 026°05'1110.7
2014-Aug-24 14:33N 39°53' E 025°54'1312.1
2014-Aug-24 13:26N 39°40' E 025°49'1112.4
2014-Aug-24 12:32N 39°30' E 025°44'1211.8
2014-Aug-24 11:32N 39°18' E 025°45'1110.7
2014-Aug-24 10:33N 39°07' E 025°48'111 3.6
2014-Aug-23 03:33N 37°16' E 026°01'1212.0
2014-Aug-23 02:33N 37°05' E 026°08'1111.4
2014-Aug-23 01:33N 36°55' E 026°14'1110.9
2014-Aug-23 00:33N 36°48' E 026°24'1111.5
2014-Aug-22 23:33N 36°39' E 026°33'2411.9
2014-Aug-22 21:33N 36°22' E 026°54'1111.3
2014-Aug-22 20:33N 36°13' E 027°02'1110.9
2014-Aug-22 19:33N 36°05' E 027°11'20011.1
2014-Aug-22 01:32N 33°02' E 028°50'1311.8
2014-Aug-22 00:26N 32°50' E 028°56'1212.0
2014-Aug-21 23:25N 32°39' E 029°02'1112.2
2014-Aug-21 22:34N 32°29' E 029°07'3511.8
2014-Aug-21 19:33N 31°57' E 029°25'1611.7
2014-Aug-21 18:09N 31°42' E 029°33'1011.7
2014-Aug-21 17:20N 31°33' E 029°37'  

Dump ship's entire track history